createdAt,value
2023-09-01T00:00:40.058Z,1007.45
2023-09-01T00:01:44.366Z,1007.43
2023-09-01T00:02:48.918Z,1007.47
2023-09-01T00:03:53.240Z,1007.47
2023-09-01T00:04:57.638Z,1007.47
2023-09-01T00:06:01.948Z,1007.45
2023-09-01T00:07:06.250Z,1007.46
2023-09-01T00:08:10.581Z,1007.45
2023-09-01T00:09:14.916Z,1007.47
2023-09-01T00:10:19.325Z,1007.43
2023-09-01T00:11:23.597Z,1007.42
2023-09-01T00:12:27.931Z,1007.44
2023-09-01T00:13:32.319Z,1007.46
2023-09-01T00:14:36.541Z,1007.46
2023-09-01T00:15:40.888Z,1007.49
2023-09-01T00:16:45.317Z,1007.53
2023-09-01T00:17:49.618Z,1007.51
2023-09-01T00:18:54.014Z,1007.51
2023-09-01T00:19:58.283Z,1007.54
2023-09-01T00:21:02.676Z,1007.55
2023-09-01T00:22:06.940Z,1007.55
2023-09-01T00:23:11.408Z,1007.57
2023-09-01T00:24:15.700Z,1007.59
2023-09-01T00:25:20.094Z,1007.56
2023-09-01T00:26:24.431Z,1007.57
2023-09-01T00:27:28.737Z,1007.58
2023-09-01T00:28:33.112Z,1007.59
2023-09-01T00:29:37.444Z,1007.57
2023-09-01T00:30:41.830Z,1007.58
2023-09-01T00:31:46.099Z,1007.60
2023-09-01T00:32:50.482Z,1007.61
2023-09-01T00:33:54.826Z,1007.58
2023-09-01T00:35:02.126Z,1007.55
2023-09-01T00:36:05.609Z,1007.58
2023-09-01T00:37:10.006Z,1007.57
2023-09-01T00:38:14.650Z,1007.56
2023-09-01T00:39:18.704Z,1007.52
2023-09-01T00:40:23.072Z,1007.52
2023-09-01T00:41:27.423Z,1007.53
2023-09-01T00:42:31.716Z,1007.51
2023-09-01T00:43:36.101Z,1007.51
2023-09-01T00:44:40.511Z,1007.52
2023-09-01T00:45:44.830Z,1007.56
2023-09-01T00:46:49.214Z,1007.58
2023-09-01T00:47:53.497Z,1007.59
2023-09-01T00:48:57.882Z,1007.59
2023-09-01T00:50:02.161Z,1007.60
2023-09-01T00:51:06.444Z,1007.62
2023-09-01T00:52:10.884Z,1007.60
2023-09-01T00:53:15.132Z,1007.59
2023-09-01T00:54:19.523Z,1007.60
2023-09-01T00:55:23.794Z,1007.58
2023-09-01T00:56:28.147Z,1007.59
2023-09-01T00:57:32.477Z,1007.62
2023-09-01T00:58:36.774Z,1007.59
2023-09-01T00:59:41.178Z,1007.60
2023-09-01T01:00:45.524Z,1007.56
2023-09-01T01:02:03.969Z,1007.57
2023-09-01T01:03:07.289Z,1007.60
2023-09-01T01:04:11.357Z,1007.58
2023-09-01T01:05:15.992Z,1007.59
2023-09-01T01:06:19.989Z,1007.58
2023-09-01T01:07:24.496Z,1007.56
2023-09-01T01:08:28.888Z,1007.55
2023-09-01T01:09:33.182Z,1007.52
2023-09-01T01:10:37.556Z,1007.54
2023-09-01T01:11:41.845Z,1007.57
2023-09-01T01:12:46.205Z,1007.56
2023-09-01T01:13:50.512Z,1007.58
2023-09-01T01:14:54.902Z,1007.56
2023-09-01T01:15:59.255Z,1007.55
2023-09-01T01:17:03.575Z,1007.58
2023-09-01T01:18:08.055Z,1007.59
2023-09-01T01:19:12.277Z,1007.60
2023-09-01T01:20:16.766Z,1007.60
2023-09-01T01:21:21.158Z,1007.62
2023-09-01T01:22:25.520Z,1007.61
2023-09-01T01:23:29.880Z,1007.59
2023-09-01T01:24:34.218Z,1007.61
2023-09-01T01:25:38.574Z,1007.60
2023-09-01T01:26:42.913Z,1007.62
2023-09-01T01:27:47.192Z,1007.59
2023-09-01T01:28:51.631Z,1007.59
2023-09-01T01:29:55.894Z,1007.61
2023-09-01T01:31:00.281Z,1007.55
2023-09-01T01:32:04.588Z,1007.54
2023-09-01T01:33:08.967Z,1007.52
2023-09-01T01:34:13.275Z,1007.52
2023-09-01T01:35:17.708Z,1007.53
2023-09-01T01:36:22.041Z,1007.55
2023-09-01T01:37:26.261Z,1007.52
2023-09-01T01:38:30.712Z,1007.51
2023-09-01T01:39:34.975Z,1007.48
2023-09-01T01:40:39.304Z,1007.50
2023-09-01T01:41:43.694Z,1007.50
2023-09-01T01:42:48.145Z,1007.50
2023-09-01T01:43:52.381Z,1007.46
2023-09-01T01:44:56.828Z,1007.48
2023-09-01T01:46:01.099Z,1007.48
2023-09-01T01:47:05.436Z,1007.47
2023-09-01T01:48:09.880Z,1007.47
2023-09-01T01:49:14.305Z,1007.49
2023-09-01T01:50:18.445Z,1007.49
2023-09-01T01:51:22.842Z,1007.46
2023-09-01T01:52:27.176Z,1007.50
2023-09-01T01:53:31.631Z,1007.50
2023-09-01T01:54:36.033Z,1007.52
2023-09-01T01:55:40.308Z,1007.51
2023-09-01T01:56:44.686Z,1007.52
2023-09-01T01:57:51.969Z,1007.54
2023-09-01T01:58:55.449Z,1007.52
2023-09-01T01:59:59.713Z,1007.55
2023-09-01T02:01:04.133Z,1007.53
2023-09-01T02:02:08.489Z,1007.53
2023-09-01T02:03:12.751Z,1007.56
2023-09-01T02:04:17.215Z,1007.58
2023-09-01T02:05:21.492Z,1007.59
2023-09-01T02:06:28.762Z,1007.61
2023-09-01T02:07:32.270Z,1007.64
2023-09-01T02:08:36.523Z,1007.62
2023-09-01T02:09:40.929Z,1007.63
2023-09-01T02:10:45.287Z,1007.63
2023-09-01T02:11:49.561Z,1007.64
2023-09-01T02:12:53.988Z,1007.61
2023-09-01T02:13:58.270Z,1007.60
2023-09-01T02:15:02.685Z,1007.61
2023-09-01T02:16:07.092Z,1007.59
2023-09-01T02:17:12.131Z,1007.60
2023-09-01T02:18:15.927Z,1007.61
2023-09-01T02:19:20.046Z,1007.62
2023-09-01T02:20:24.464Z,1007.62
2023-09-01T02:21:28.766Z,1007.61
2023-09-01T02:22:33.084Z,1007.62
2023-09-01T02:23:37.486Z,1007.60
2023-09-01T02:24:41.909Z,1007.62
2023-09-01T02:25:46.140Z,1007.63
2023-09-01T02:26:50.446Z,1007.61
2023-09-01T02:27:54.827Z,1007.63
2023-09-01T02:28:59.223Z,1007.62
2023-09-01T02:30:03.597Z,1007.63
2023-09-01T02:31:08.109Z,1007.63
2023-09-01T02:32:12.281Z,1007.64
2023-09-01T02:33:16.768Z,1007.61
2023-09-01T02:34:20.941Z,1007.63
2023-09-01T02:35:25.446Z,1007.59
2023-09-01T02:36:29.671Z,1007.56
2023-09-01T02:37:34.006Z,1007.58
2023-09-01T02:38:38.508Z,1007.58
2023-09-01T02:39:42.713Z,1007.59
2023-09-01T02:40:47.129Z,1007.61
2023-09-01T02:41:51.455Z,1007.62
2023-09-01T02:42:55.811Z,1007.63
2023-09-01T02:44:00.110Z,1007.62
2023-09-01T02:45:04.401Z,1007.64
2023-09-01T02:46:08.953Z,1007.64
2023-09-01T02:47:13.145Z,1007.65
2023-09-01T02:48:17.522Z,1007.65
2023-09-01T02:49:21.800Z,1007.65
2023-09-01T02:50:26.078Z,1007.66
2023-09-01T02:51:30.398Z,1007.65
2023-09-01T02:52:34.828Z,1007.67
2023-09-01T02:53:39.151Z,1007.70
2023-09-01T02:54:43.463Z,1007.72
2023-09-01T02:55:47.869Z,1007.74
2023-09-01T02:56:52.211Z,1007.76
2023-09-01T02:57:56.558Z,1007.78
2023-09-01T02:59:00.925Z,1007.78
2023-09-01T03:00:05.209Z,1007.79
2023-09-01T03:01:10.037Z,1007.80
2023-09-01T03:02:13.961Z,1007.78
2023-09-01T03:03:18.387Z,1007.79
2023-09-01T03:04:22.580Z,1007.81
2023-09-01T03:05:27.088Z,1007.82
2023-09-01T03:06:37.378Z,1007.79
2023-09-01T03:07:40.359Z,1007.79
2023-09-01T03:08:44.726Z,1007.79
2023-09-01T03:09:48.959Z,1007.79
2023-09-01T03:10:53.288Z,1007.81
2023-09-01T03:11:57.791Z,1007.79
2023-09-01T03:13:02.089Z,1007.83
2023-09-01T03:14:06.523Z,1007.84
2023-09-01T03:15:10.902Z,1007.86
2023-09-01T03:16:29.352Z,1007.86
2023-09-01T03:17:32.434Z,1007.89
2023-09-01T03:18:36.626Z,1007.89
2023-09-01T03:19:55.062Z,1007.90
2023-09-01T03:20:58.294Z,1007.94
2023-09-01T03:22:02.455Z,1007.90
2023-09-01T03:23:06.825Z,1007.95
2023-09-01T03:24:11.159Z,1007.92
2023-09-01T03:25:15.549Z,1007.95
2023-09-01T03:26:19.853Z,1007.95
2023-09-01T03:27:24.299Z,1007.95
2023-09-01T03:28:28.553Z,1007.96
2023-09-01T03:29:32.971Z,1007.92
2023-09-01T03:30:37.205Z,1007.92
2023-09-01T03:31:41.747Z,1007.90
2023-09-01T03:32:45.935Z,1007.91
2023-09-01T03:33:50.177Z,1007.92
2023-09-01T03:34:57.563Z,1007.92
2023-09-01T03:36:01.066Z,1007.91
2023-09-01T03:37:05.433Z,1007.93
2023-09-01T03:38:09.651Z,1007.94
2023-09-01T03:39:13.966Z,1007.94
2023-09-01T03:40:18.403Z,1007.95
2023-09-01T03:41:22.701Z,1007.97
2023-09-01T03:42:27.073Z,1007.96
2023-09-01T03:43:31.365Z,1007.97
2023-09-01T03:44:35.735Z,1007.93
2023-09-01T03:45:40.021Z,1007.95
2023-09-01T03:46:44.419Z,1007.96
2023-09-01T03:47:48.774Z,1007.96
2023-09-01T03:48:53.103Z,1008.00
2023-09-01T03:49:57.388Z,1007.98
2023-09-01T03:51:01.783Z,1007.97
2023-09-01T03:52:06.235Z,1007.97
2023-09-01T03:53:10.574Z,1007.97
2023-09-01T03:54:14.959Z,1007.98
2023-09-01T03:55:19.196Z,1007.97
2023-09-01T03:56:23.554Z,1008.00
2023-09-01T03:57:27.836Z,1008.00
2023-09-01T03:58:32.196Z,1008.00
2023-09-01T03:59:36.647Z,1008.02
2023-09-01T04:00:40.945Z,1007.98
2023-09-01T04:01:45.361Z,1007.98
2023-09-01T04:02:49.677Z,1007.97
2023-09-01T04:03:54.048Z,1007.99
2023-09-01T04:04:58.246Z,1008.02
2023-09-01T04:06:02.575Z,1008.03
2023-09-01T04:07:06.900Z,1008.06
2023-09-01T04:08:11.612Z,1008.05
2023-09-01T04:09:15.688Z,1008.04
2023-09-01T04:10:20.034Z,1008.02
2023-09-01T04:11:38.482Z,1008.03
2023-09-01T04:12:41.670Z,1008.02
2023-09-01T04:13:45.878Z,1008.00
2023-09-01T04:14:50.272Z,1008.03
2023-09-01T04:16:08.536Z,1008.01
2023-09-01T04:17:11.699Z,1008.03
2023-09-01T04:18:16.175Z,1008.02
2023-09-01T04:19:20.239Z,1008.05
2023-09-01T04:20:24.644Z,1008.05
2023-09-01T04:21:28.861Z,1008.07
2023-09-01T04:22:33.166Z,1008.09
2023-09-01T04:23:40.694Z,1008.10
2023-09-01T04:24:44.065Z,1008.10
2023-09-01T04:25:48.272Z,1008.10
2023-09-01T04:27:06.603Z,1008.11
2023-09-01T04:28:09.951Z,1008.15
2023-09-01T04:29:14.319Z,1008.18
2023-09-01T04:30:18.498Z,1008.19
2023-09-01T04:31:22.972Z,1008.21
2023-09-01T04:32:27.282Z,1008.18
2023-09-01T04:33:31.516Z,1008.19
2023-09-01T04:34:35.966Z,1008.22
2023-09-01T04:35:40.307Z,1008.23
2023-09-01T04:36:47.457Z,1008.24
2023-09-01T04:37:48.932Z,1008.24
2023-09-01T04:38:53.212Z,1008.24
2023-09-01T04:40:11.641Z,1008.23
2023-09-01T04:41:14.853Z,1008.24
2023-09-01T04:42:19.188Z,1008.24
2023-09-01T04:43:23.586Z,1008.26
2023-09-01T04:44:27.833Z,1008.28
2023-09-01T04:45:32.253Z,1008.28
2023-09-01T04:46:36.655Z,1008.29
2023-09-01T04:47:40.892Z,1008.30
2023-09-01T04:48:45.175Z,1008.30
2023-09-01T04:49:49.553Z,1008.30
2023-09-01T04:50:54.010Z,1008.31
2023-09-01T04:51:58.393Z,1008.33
2023-09-01T04:53:10.456Z,1008.36
2023-09-01T04:54:11.633Z,1008.35
2023-09-01T04:55:16.137Z,1008.33
2023-09-01T04:56:20.346Z,1008.32
2023-09-01T04:58:51.999Z,1008.30
2023-09-01T04:59:56.333Z,1008.32
2023-09-01T05:01:00.715Z,1008.35
2023-09-01T05:02:05.021Z,1008.36
2023-09-01T05:03:09.410Z,1008.37
2023-09-01T05:04:13.543Z,1008.38
2023-09-01T05:05:17.931Z,1008.40
2023-09-01T05:06:22.266Z,1008.42
2023-09-01T05:07:26.606Z,1008.42
2023-09-01T05:08:30.988Z,1008.41
2023-09-01T05:09:35.345Z,1008.43
2023-09-01T05:10:39.810Z,1008.44
2023-09-01T05:11:44.096Z,1008.42
2023-09-01T05:12:48.393Z,1008.42
2023-09-01T05:13:52.893Z,1008.43
2023-09-01T05:14:57.128Z,1008.46
2023-09-01T05:16:01.609Z,1008.45
2023-09-01T05:17:06.009Z,1008.45
2023-09-01T05:18:10.480Z,1008.44
2023-09-01T05:19:14.767Z,1008.46
2023-09-01T05:20:19.015Z,1008.48
2023-09-01T05:21:23.383Z,1008.48
2023-09-01T05:22:27.678Z,1008.50
2023-09-01T05:23:32.112Z,1008.50
2023-09-01T05:24:36.337Z,1008.50
2023-09-01T05:25:40.814Z,1008.51
2023-09-01T05:26:45.147Z,1008.50
2023-09-01T05:27:49.484Z,1008.52
2023-09-01T05:28:53.805Z,1008.51
2023-09-01T05:30:01.158Z,1008.50
2023-09-01T05:31:04.684Z,1008.54
2023-09-01T05:32:09.001Z,1008.54
2023-09-01T05:33:15.687Z,1008.55
2023-09-01T05:34:17.734Z,1008.53
2023-09-01T05:35:21.946Z,1008.56
2023-09-01T05:36:26.272Z,1008.57
2023-09-01T05:37:30.747Z,1008.61
2023-09-01T05:38:35.113Z,1008.61
2023-09-01T05:39:39.448Z,1008.62
2023-09-01T05:40:43.854Z,1008.64
2023-09-01T05:41:48.373Z,1008.65
2023-09-01T05:42:52.758Z,1008.65
2023-09-01T05:43:57.087Z,1008.65
2023-09-01T05:45:01.443Z,1008.64
2023-09-01T05:46:05.694Z,1008.66
2023-09-01T05:47:09.993Z,1008.65
2023-09-01T05:48:14.591Z,1008.67
2023-09-01T05:49:18.713Z,1008.66
2023-09-01T05:50:22.994Z,1008.68
2023-09-01T05:51:27.405Z,1008.70
2023-09-01T05:52:31.776Z,1008.68
2023-09-01T05:53:36.062Z,1008.65
2023-09-01T05:54:40.567Z,1008.67
2023-09-01T05:55:44.892Z,1008.68
2023-09-01T05:56:49.249Z,1008.68
2023-09-01T05:57:53.674Z,1008.69
2023-09-01T05:58:57.961Z,1008.71
2023-09-01T06:00:02.280Z,1008.70
2023-09-01T06:01:06.710Z,1008.71
2023-09-01T06:02:10.957Z,1008.72
2023-09-01T06:03:21.459Z,1008.74
2023-09-01T06:04:24.400Z,1008.75
2023-09-01T06:05:28.831Z,1008.75
2023-09-01T06:06:33.075Z,1008.77
2023-09-01T06:07:37.349Z,1008.78
2023-09-01T06:08:41.715Z,1008.82
2023-09-01T06:09:46.106Z,1008.81
2023-09-01T06:10:50.472Z,1008.81
2023-09-01T06:11:54.808Z,1008.81
2023-09-01T06:12:59.253Z,1008.84
2023-09-01T06:14:03.593Z,1008.84
2023-09-01T06:15:08.011Z,1008.82
2023-09-01T06:16:12.471Z,1008.85
2023-09-01T06:17:16.792Z,1008.84
2023-09-01T06:18:21.297Z,1008.81
2023-09-01T06:19:25.467Z,1008.82
2023-09-01T06:20:29.879Z,1008.81
2023-09-01T06:21:37.278Z,1008.81
2023-09-01T06:22:40.778Z,1008.82
2023-09-01T06:23:45.140Z,1008.83
2023-09-01T06:24:49.532Z,1008.82
2023-09-01T06:25:53.935Z,1008.83
2023-09-01T06:26:58.319Z,1008.82
2023-09-01T06:28:02.730Z,1008.84
2023-09-01T06:29:07.086Z,1008.86
2023-09-01T06:30:11.478Z,1008.88
2023-09-01T06:31:15.784Z,1008.87
2023-09-01T06:32:20.031Z,1008.90
2023-09-01T06:33:24.449Z,1008.91
2023-09-01T06:34:28.895Z,1008.96
2023-09-01T06:35:33.297Z,1008.95
2023-09-01T06:36:37.639Z,1008.95
2023-09-01T06:37:42.043Z,1008.96
2023-09-01T06:38:46.424Z,1008.94
2023-09-01T06:39:50.811Z,1008.92
2023-09-01T06:40:58.182Z,1008.95
2023-09-01T06:42:01.724Z,1008.93
2023-09-01T06:43:06.037Z,1008.94
2023-09-01T06:44:10.421Z,1008.96
2023-09-01T06:45:14.760Z,1009.00
2023-09-01T06:46:19.308Z,1009.01
2023-09-01T06:47:23.558Z,1009.02
2023-09-01T06:48:27.904Z,1009.03
2023-09-01T06:49:32.226Z,1009.04
2023-09-01T06:50:36.567Z,1009.04
2023-09-01T06:51:42.722Z,1009.05
2023-09-01T06:52:45.435Z,1009.02
2023-09-01T06:53:49.758Z,1009.05
2023-09-01T06:54:54.275Z,1009.05
2023-09-01T06:55:58.629Z,1009.05
2023-09-01T06:57:03.003Z,1009.07
2023-09-01T06:58:07.403Z,1009.04
2023-09-01T06:59:11.791Z,1009.03
2023-09-01T07:00:16.107Z,1009.02
2023-09-01T07:01:20.459Z,1009.04
2023-09-01T07:02:24.759Z,1009.03
2023-09-01T07:03:29.229Z,1009.02
2023-09-01T07:04:33.596Z,1009.01
2023-09-01T07:05:37.933Z,1009.00
2023-09-01T07:06:42.236Z,1008.99
2023-09-01T07:07:46.663Z,1009.00
2023-09-01T07:08:51.059Z,1008.99
2023-09-01T07:09:55.438Z,1009.02
2023-09-01T07:10:59.774Z,1009.03
2023-09-01T07:12:04.181Z,1009.04
2023-09-01T07:13:08.597Z,1009.08
2023-09-01T07:14:12.940Z,1009.08
2023-09-01T07:15:17.405Z,1009.08
2023-09-01T07:16:21.847Z,1009.09
2023-09-01T07:17:26.217Z,1009.08
2023-09-01T07:18:30.569Z,1009.08
2023-09-01T07:19:34.980Z,1009.12
2023-09-01T07:20:39.598Z,1009.10
2023-09-01T07:21:43.783Z,1009.13
2023-09-01T07:22:48.189Z,1009.11
2023-09-01T07:23:52.567Z,1009.12
2023-09-01T07:24:56.972Z,1009.15
2023-09-01T07:26:04.330Z,1009.15
2023-09-01T07:27:07.749Z,1009.17
2023-09-01T07:28:12.379Z,1009.17
2023-09-01T07:29:16.440Z,1009.17
2023-09-01T07:30:21.735Z,1009.23
2023-09-01T07:31:25.298Z,1009.20
2023-09-01T07:32:29.669Z,1009.22
2023-09-01T07:33:33.984Z,1009.21
2023-09-01T07:34:38.379Z,1009.24
2023-09-01T07:35:42.761Z,1009.25
2023-09-01T07:36:47.173Z,1009.25
2023-09-01T07:37:51.482Z,1009.24
2023-09-01T07:38:55.911Z,1009.25
2023-09-01T07:40:00.228Z,1009.25
2023-09-01T07:41:04.626Z,1009.25
2023-09-01T07:42:09.025Z,1009.25
2023-09-01T07:43:13.373Z,1009.23
2023-09-01T07:44:17.779Z,1009.24
2023-09-01T07:45:22.150Z,1009.27
2023-09-01T07:46:26.533Z,1009.24
2023-09-01T07:47:30.901Z,1009.26
2023-09-01T07:48:35.328Z,1009.27
2023-09-01T07:49:39.659Z,1009.27
2023-09-01T07:50:44.068Z,1009.28
2023-09-01T07:51:48.381Z,1009.27
2023-09-01T07:52:52.810Z,1009.29
2023-09-01T07:53:57.152Z,1009.29
2023-09-01T07:55:01.591Z,1009.29
2023-09-01T07:56:05.974Z,1009.32
2023-09-01T07:57:10.371Z,1009.33
2023-09-01T07:58:14.973Z,1009.38
2023-09-01T07:59:19.070Z,1009.39
2023-09-01T08:00:23.559Z,1009.43
2023-09-01T08:01:27.924Z,1009.45
2023-09-01T08:02:32.397Z,1009.46
2023-09-01T08:03:36.714Z,1009.47
2023-09-01T08:04:41.114Z,1009.47
2023-09-01T08:05:45.527Z,1009.45
2023-09-01T08:06:49.942Z,1009.45
2023-09-01T08:07:54.351Z,1009.44
2023-09-01T08:08:58.711Z,1009.45
2023-09-01T08:10:03.065Z,1009.48
2023-09-01T08:11:07.510Z,1009.46
2023-09-01T08:12:11.834Z,1009.46
2023-09-01T08:13:16.289Z,1009.47
2023-09-01T08:14:20.778Z,1009.47
2023-09-01T08:15:25.099Z,1009.50
2023-09-01T08:16:29.495Z,1009.50
2023-09-01T08:17:33.820Z,1009.49
2023-09-01T08:18:38.246Z,1009.52
2023-09-01T08:19:42.638Z,1009.52
2023-09-01T08:20:47.025Z,1009.54
2023-09-01T08:21:51.452Z,1009.56
2023-09-01T08:22:55.814Z,1009.57
2023-09-01T08:24:00.137Z,1009.57
2023-09-01T08:25:04.503Z,1009.58
2023-09-01T08:26:08.881Z,1009.61
2023-09-01T08:27:13.260Z,1009.60
2023-09-01T08:28:18.118Z,1009.64
2023-09-01T08:29:22.054Z,1009.62
2023-09-01T08:30:26.538Z,1009.62
2023-09-01T08:31:30.888Z,1009.64
2023-09-01T08:32:35.264Z,1009.67
2023-09-01T08:33:39.645Z,1009.67
2023-09-01T08:34:44.072Z,1009.67
2023-09-01T08:35:48.435Z,1009.71
2023-09-01T08:36:52.870Z,1009.73
2023-09-01T08:37:57.289Z,1009.74
2023-09-01T08:39:01.662Z,1009.74
2023-09-01T08:40:06.051Z,1009.78
2023-09-01T08:41:10.464Z,1009.78
2023-09-01T08:42:14.820Z,1009.78
2023-09-01T08:43:19.301Z,1009.79
2023-09-01T08:44:23.599Z,1009.83
2023-09-01T08:45:28.049Z,1009.82
2023-09-01T08:46:32.511Z,1009.86
2023-09-01T08:47:36.956Z,1009.86
2023-09-01T08:48:41.262Z,1009.86
2023-09-01T08:49:45.636Z,1009.87
2023-09-01T08:50:50.051Z,1009.85
2023-09-01T08:51:54.505Z,1009.84
2023-09-01T08:52:58.827Z,1009.85
2023-09-01T08:54:03.252Z,1009.82
2023-09-01T08:55:07.605Z,1009.85
2023-09-01T08:56:11.986Z,1009.84
2023-09-01T08:57:16.496Z,1009.85
2023-09-01T08:58:20.893Z,1009.87
2023-09-01T08:59:25.288Z,1009.89
2023-09-01T09:00:29.600Z,1009.88
2023-09-01T09:01:34.119Z,1009.91
2023-09-01T09:02:39.600Z,1009.93
2023-09-01T09:03:42.900Z,1009.94
2023-09-01T09:04:47.240Z,1009.96
2023-09-01T09:05:51.603Z,1009.98
2023-09-01T09:06:55.930Z,1009.99
2023-09-01T09:08:00.274Z,1010.01
2023-09-01T09:09:04.646Z,1010.04
2023-09-01T09:10:09.061Z,1010.01
2023-09-01T09:11:13.482Z,1010.03
2023-09-01T09:12:17.914Z,1010.01
2023-09-01T09:13:22.321Z,1010.03
2023-09-01T09:14:26.709Z,1010.04
2023-09-01T09:15:31.032Z,1010.05
2023-09-01T09:16:35.568Z,1010.08
2023-09-01T09:17:39.965Z,1010.10
2023-09-01T09:18:44.489Z,1010.12
2023-09-01T09:19:48.877Z,1010.13
2023-09-01T09:20:53.275Z,1010.14
2023-09-01T09:21:57.613Z,1010.13
2023-09-01T09:23:02.088Z,1010.14
2023-09-01T09:24:22.042Z,1010.18
2023-09-01T09:25:10.920Z,1010.14
2023-09-01T09:26:15.256Z,1010.14
2023-09-01T09:27:19.726Z,1010.14
2023-09-01T09:28:24.031Z,1010.12
2023-09-01T09:29:28.405Z,1010.14
2023-09-01T09:30:32.877Z,1010.13
2023-09-01T09:31:37.238Z,1010.09
2023-09-01T09:32:41.557Z,1010.10
2023-09-01T09:33:45.879Z,1010.10
2023-09-01T09:34:50.326Z,1010.12
2023-09-01T09:35:54.736Z,1010.11
2023-09-01T09:36:59.138Z,1010.11
2023-09-01T09:38:03.582Z,1010.13
2023-09-01T09:39:07.973Z,1010.12
2023-09-01T09:40:12.381Z,1010.12
2023-09-01T09:41:16.801Z,1010.11
2023-09-01T09:42:21.199Z,1010.12
2023-09-01T09:43:25.604Z,1010.12
2023-09-01T09:44:30.032Z,1010.12
2023-09-01T09:45:34.411Z,1010.10
2023-09-01T09:46:38.820Z,1010.12
2023-09-01T09:47:43.284Z,1010.10
2023-09-01T09:48:47.748Z,1010.11
2023-09-01T09:49:52.025Z,1010.12
2023-09-01T09:50:56.538Z,1010.12
2023-09-01T09:52:00.903Z,1010.10
2023-09-01T09:53:05.416Z,1010.14
2023-09-01T09:54:09.815Z,1010.13
2023-09-01T09:55:14.195Z,1010.13
2023-09-01T09:56:18.515Z,1010.12
2023-09-01T09:57:23.013Z,1010.13
2023-09-01T09:58:27.333Z,1010.13
2023-09-01T09:59:45.790Z,1010.13
2023-09-01T10:00:49.236Z,1010.12
2023-09-01T10:01:53.737Z,1010.14
2023-09-01T10:02:57.998Z,1010.15
2023-09-01T10:04:16.496Z,1010.17
2023-09-01T10:05:19.801Z,1010.16
2023-09-01T10:06:24.167Z,1010.19
2023-09-01T10:07:28.508Z,1010.16
2023-09-01T10:08:32.927Z,1010.18
2023-09-01T10:09:37.388Z,1010.18
2023-09-01T10:10:41.797Z,1010.19
2023-09-01T10:11:46.232Z,1010.16
2023-09-01T10:12:50.571Z,1010.15
2023-09-01T10:13:55.056Z,1010.18
2023-09-01T10:14:59.482Z,1010.19
2023-09-01T10:16:04.003Z,1010.14
2023-09-01T10:17:22.862Z,1010.13
2023-09-01T10:18:31.767Z,1010.12
2023-09-01T10:19:34.829Z,1010.13
2023-09-01T10:20:39.217Z,1010.14
2023-09-01T10:21:43.632Z,1010.15
2023-09-01T10:22:48.105Z,1010.16
2023-09-01T10:23:52.454Z,1010.15
2023-09-01T10:24:56.945Z,1010.15
2023-09-01T10:26:01.339Z,1010.14
2023-09-01T10:27:05.668Z,1010.13
2023-09-01T10:28:10.124Z,1010.13
2023-09-01T10:29:15.790Z,1010.14
2023-09-01T10:30:18.906Z,1010.15
2023-09-01T10:31:23.352Z,1010.15
2023-09-01T10:32:27.813Z,1010.15
2023-09-01T10:33:32.259Z,1010.13
2023-09-01T10:34:36.691Z,1010.15
2023-09-01T10:35:41.118Z,1010.16
2023-09-01T10:36:45.548Z,1010.15
2023-09-01T10:37:49.978Z,1010.13
2023-09-01T10:38:54.433Z,1010.13
2023-09-01T10:39:58.862Z,1010.12
2023-09-01T10:41:03.309Z,1010.11
2023-09-01T10:42:07.719Z,1010.08
2023-09-01T10:43:12.153Z,1010.07
2023-09-01T10:44:16.594Z,1010.03
2023-09-01T10:45:21.035Z,1010.07
2023-09-01T10:46:25.508Z,1010.05
2023-09-01T10:47:29.910Z,1010.06
2023-09-01T10:48:34.324Z,1010.06
2023-09-01T10:49:38.747Z,1010.08
2023-09-01T10:50:43.206Z,1010.09
2023-09-01T10:51:47.798Z,1010.07
2023-09-01T10:52:52.103Z,1009.99
2023-09-01T10:53:56.520Z,1010.03
2023-09-01T10:55:01.009Z,1010.02
2023-09-01T10:56:05.436Z,1010.01
2023-09-01T10:57:09.743Z,1009.93
2023-09-01T10:58:14.416Z,1009.99
2023-09-01T10:59:18.637Z,1009.99
2023-09-01T11:00:23.344Z,1009.96
2023-09-01T11:01:27.565Z,1009.96
2023-09-01T11:02:31.993Z,1009.97
2023-09-01T11:03:36.359Z,1009.97
2023-09-01T11:04:40.719Z,1009.88
2023-09-01T11:05:45.208Z,1009.88
2023-09-01T11:06:49.561Z,1009.94
2023-09-01T11:07:54.038Z,1009.92
2023-09-01T11:08:58.392Z,1009.94
2023-09-01T11:10:02.812Z,1009.94
2023-09-01T11:11:07.300Z,1009.92
2023-09-01T11:12:11.824Z,1009.92
2023-09-01T11:13:19.216Z,1009.93
2023-09-01T11:14:22.816Z,1009.92
2023-09-01T11:15:27.230Z,1009.86
2023-09-01T11:16:31.704Z,1009.97
2023-09-01T11:17:36.154Z,1009.99
2023-09-01T11:18:40.546Z,1009.98
2023-09-01T11:19:45.168Z,1009.96
2023-09-01T11:20:49.430Z,1010.02
2023-09-01T11:21:53.949Z,1010.04
2023-09-01T11:22:58.401Z,1010.03
2023-09-01T11:24:02.937Z,1010.03
2023-09-01T11:25:07.358Z,1010.05
2023-09-01T11:26:11.715Z,1010.03
2023-09-01T11:27:16.258Z,1010.04
2023-09-01T11:28:20.677Z,1010.02
2023-09-01T11:29:25.110Z,1010.02
2023-09-01T11:30:29.526Z,1010.00
2023-09-01T11:31:33.990Z,1009.99
2023-09-01T11:32:38.516Z,1009.99
2023-09-01T11:33:42.891Z,1010.00
2023-09-01T11:34:47.331Z,1010.05
2023-09-01T11:35:57.756Z,1010.02
2023-09-01T11:37:00.889Z,1010.04
2023-09-01T11:38:05.246Z,1010.08
2023-09-01T11:39:09.658Z,1010.10
2023-09-01T11:40:14.306Z,1010.08
2023-09-01T11:41:18.780Z,1010.08
2023-09-01T11:42:23.124Z,1010.04
2023-09-01T11:43:29.640Z,1010.00
2023-09-01T11:44:31.877Z,1010.04
2023-09-01T11:45:36.416Z,1010.05
2023-09-01T11:46:40.858Z,1010.07
2023-09-01T11:47:45.258Z,1010.08
2023-09-01T11:48:49.711Z,1010.09
2023-09-01T11:49:54.098Z,1010.08
2023-09-01T11:50:58.664Z,1010.09
2023-09-01T11:52:03.036Z,1010.11
2023-09-01T11:53:07.415Z,1010.15
2023-09-01T11:54:11.830Z,1010.16
2023-09-01T11:55:16.315Z,1010.17
2023-09-01T11:56:23.889Z,1010.13
2023-09-01T11:57:27.271Z,1010.15
2023-09-01T11:58:34.747Z,1010.11
2023-09-01T11:59:38.283Z,1010.12
2023-09-01T12:00:42.658Z,1010.09
2023-09-01T12:01:47.064Z,1010.07
2023-09-01T12:02:51.474Z,1010.07
2023-09-01T12:03:55.865Z,1010.09
2023-09-01T12:05:00.360Z,1010.11
2023-09-01T12:06:06.331Z,1010.07
2023-09-01T12:07:09.182Z,1010.11
2023-09-01T12:08:13.609Z,1010.12
2023-09-01T12:09:18.282Z,1010.10
2023-09-01T12:10:22.542Z,1010.12
2023-09-01T12:11:27.861Z,1010.11
2023-09-01T12:12:34.980Z,1010.10
2023-09-01T12:13:38.527Z,1010.15
2023-09-01T12:14:42.837Z,1010.13
2023-09-01T12:15:47.321Z,1010.22
2023-09-01T12:16:52.537Z,1010.21
2023-09-01T12:17:56.233Z,1010.19
2023-09-01T12:19:00.624Z,1010.16
2023-09-01T12:20:05.032Z,1010.19
2023-09-01T12:21:09.456Z,1010.15
2023-09-01T12:22:13.831Z,1010.17
2023-09-01T12:23:18.290Z,1010.19
2023-09-01T12:24:22.746Z,1010.20
2023-09-01T12:25:27.222Z,1010.17
2023-09-01T12:26:34.631Z,1010.17
2023-09-01T12:27:38.346Z,1010.15
2023-09-01T12:28:42.867Z,1010.14
2023-09-01T12:29:47.189Z,1010.16
2023-09-01T12:30:51.742Z,1010.11
2023-09-01T12:31:56.078Z,1010.10
2023-09-01T12:33:00.646Z,1010.08
2023-09-01T12:34:05.033Z,1010.11
2023-09-01T12:35:09.398Z,1010.06
2023-09-01T12:36:13.800Z,1010.06
2023-09-01T12:37:18.218Z,1010.08
2023-09-01T12:38:22.729Z,1010.09
2023-09-01T12:39:27.153Z,1010.15
2023-09-01T12:40:34.697Z,1010.11
2023-09-01T12:41:38.331Z,1010.09
2023-09-01T12:42:42.794Z,1010.09
2023-09-01T12:43:47.216Z,1010.10
2023-09-01T12:44:54.671Z,1010.12
2023-09-01T12:45:58.548Z,1010.09
2023-09-01T12:47:02.752Z,1010.08
2023-09-01T12:48:07.295Z,1010.11
2023-09-01T12:49:11.541Z,1010.04
2023-09-01T12:50:16.158Z,1010.01
2023-09-01T12:51:20.636Z,1010.01
2023-09-01T12:52:25.172Z,1009.97
2023-09-01T12:53:29.576Z,1010.04
2023-09-01T12:54:34.115Z,1010.00
2023-09-01T12:55:41.500Z,1010.01
2023-09-01T12:56:48.097Z,1010.00
2023-09-01T12:57:51.706Z,1009.98
2023-09-01T12:58:56.292Z,1009.97
2023-09-01T13:00:00.555Z,1009.96
2023-09-01T13:01:05.256Z,1009.98
2023-09-01T13:02:09.450Z,1009.97
2023-09-01T13:03:14.027Z,1010.02